sensor_id;sensor_type;location;lat;lon;timestamp;P1;durP1;ratioP1;P2;durP2;ratioP2
21480;SDS011;10902;48.158;8.634;2023-06-22T00:01:37;17.10;;;9.32;;
21480;SDS011;10902;48.158;8.634;2023-06-22T00:04:31;13.57;;;9.05;;
21480;SDS011;10902;48.158;8.634;2023-06-22T00:07:17;17.00;;;8.80;;
21480;SDS011;10902;48.158;8.634;2023-06-22T00:10:06;14.43;;;9.75;;
21480;SDS011;10902;48.158;8.634;2023-06-22T00:12:52;13.90;;;8.73;;
21480;SDS011;10902;48.158;8.634;2023-06-22T00:15:39;18.25;;;9.30;;
21480;SDS011;10902;48.158;8.634;2023-06-22T00:18:25;16.70;;;8.63;;
21480;SDS011;10902;48.158;8.634;2023-06-22T00:21:13;14.70;;;9.93;;
21480;SDS011;10902;48.158;8.634;2023-06-22T00:23:59;12.77;;;9.90;;
21480;SDS011;10902;48.158;8.634;2023-06-22T00:26:45;19.23;;;10.02;;
21480;SDS011;10902;48.158;8.634;2023-06-22T00:29:31;14.05;;;9.20;;
21480;SDS011;10902;48.158;8.634;2023-06-22T00:32:17;13.85;;;7.93;;
21480;SDS011;10902;48.158;8.634;2023-06-22T00:35:06;16.33;;;8.40;;
21480;SDS011;10902;48.158;8.634;2023-06-22T00:37:52;14.65;;;9.18;;
21480;SDS011;10902;48.158;8.634;2023-06-22T00:40:48;14.15;;;8.60;;
21480;SDS011;10902;48.158;8.634;2023-06-22T00:43:34;15.75;;;9.02;;
21480;SDS011;10902;48.158;8.634;2023-06-22T00:46:20;13.65;;;9.40;;
21480;SDS011;10902;48.158;8.634;2023-06-22T00:49:08;17.05;;;9.93;;
21480;SDS011;10902;48.158;8.634;2023-06-22T00:51:54;16.77;;;9.93;;
21480;SDS011;10902;48.158;8.634;2023-06-22T00:54:46;13.10;;;9.25;;
21480;SDS011;10902;48.158;8.634;2023-06-22T00:57:34;16.75;;;10.40;;
21480;SDS011;10902;48.158;8.634;2023-06-22T01:00:23;13.90;;;9.32;;
21480;SDS011;10902;48.158;8.634;2023-06-22T01:03:10;14.55;;;9.15;;
21480;SDS011;10902;48.158;8.634;2023-06-22T01:05:59;13.77;;;10.07;;
21480;SDS011;10902;48.158;8.634;2023-06-22T01:09:02;15.45;;;10.38;;
21480;SDS011;10902;48.158;8.634;2023-06-22T01:12:16;14.70;;;10.07;;
21480;SDS011;10902;48.158;8.634;2023-06-22T01:15:16;15.45;;;11.35;;
21480;SDS011;10902;48.158;8.634;2023-06-22T01:18:07;16.08;;;11.90;;
21480;SDS011;10902;48.158;8.634;2023-06-22T01:20:54;16.63;;;11.70;;
21480;SDS011;10902;48.158;8.634;2023-06-22T01:30:07;20.48;;;14.00;;
21480;SDS011;10902;48.158;8.634;2023-06-22T01:32:56;21.33;;;14.27;;
21480;SDS011;10902;48.158;8.634;2023-06-22T01:35:43;21.50;;;14.27;;
21480;SDS011;10902;48.158;8.634;2023-06-22T01:38:30;20.88;;;14.63;;
21480;SDS011;10902;48.158;8.634;2023-06-22T01:41:17;24.30;;;15.25;;
21480;SDS011;10902;48.158;8.634;2023-06-22T01:44:05;24.35;;;14.40;;
21480;SDS011;10902;48.158;8.634;2023-06-22T01:46:54;20.70;;;14.43;;
21480;SDS011;10902;48.158;8.634;2023-06-22T01:49:40;20.65;;;14.30;;
21480;SDS011;10902;48.158;8.634;2023-06-22T01:52:27;18.58;;;14.43;;
21480;SDS011;10902;48.158;8.634;2023-06-22T01:55:13;22.05;;;14.75;;
21480;SDS011;10902;48.158;8.634;2023-06-22T01:58:01;19.35;;;13.85;;
21480;SDS011;10902;48.158;8.634;2023-06-22T02:00:50;21.92;;;14.27;;
21480;SDS011;10902;48.158;8.634;2023-06-22T02:03:55;21.02;;;14.75;;
21480;SDS011;10902;48.158;8.634;2023-06-22T02:06:51;18.88;;;14.45;;
21480;SDS011;10902;48.158;8.634;2023-06-22T02:09:46;22.25;;;15.05;;
21480;SDS011;10902;48.158;8.634;2023-06-22T02:12:38;20.35;;;14.13;;
21480;SDS011;10902;48.158;8.634;2023-06-22T02:15:26;19.77;;;14.30;;
21480;SDS011;10902;48.158;8.634;2023-06-22T02:18:12;16.25;;;12.85;;
21480;SDS011;10902;48.158;8.634;2023-06-22T02:20:59;17.90;;;12.20;;
21480;SDS011;10902;48.158;8.634;2023-06-22T02:23:45;17.75;;;13.15;;
21480;SDS011;10902;48.158;8.634;2023-06-22T02:26:31;20.60;;;13.15;;
21480;SDS011;10902;48.158;8.634;2023-06-22T02:29:18;22.05;;;12.60;;
21480;SDS011;10902;48.158;8.634;2023-06-22T02:32:06;19.58;;;13.85;;
21480;SDS011;10902;48.158;8.634;2023-06-22T02:34:52;18.08;;;12.80;;
21480;SDS011;10902;48.158;8.634;2023-06-22T02:37:39;20.58;;;14.50;;
21480;SDS011;10902;48.158;8.634;2023-06-22T02:40:26;17.00;;;13.13;;
21480;SDS011;10902;48.158;8.634;2023-06-22T02:43:17;19.65;;;13.80;;
21480;SDS011;10902;48.158;8.634;2023-06-22T02:46:02;18.40;;;12.48;;
21480;SDS011;10902;48.158;8.634;2023-06-22T02:48:48;19.45;;;13.85;;
21480;SDS011;10902;48.158;8.634;2023-06-22T02:51:42;19.20;;;14.30;;
21480;SDS011;10902;48.158;8.634;2023-06-22T02:54:30;18.30;;;13.45;;
21480;SDS011;10902;48.158;8.634;2023-06-22T02:57:19;17.42;;;12.82;;
21480;SDS011;10902;48.158;8.634;2023-06-22T03:00:05;19.05;;;12.77;;
21480;SDS011;10902;48.158;8.634;2023-06-22T03:03:02;17.42;;;12.48;;
21480;SDS011;10902;48.158;8.634;2023-06-22T03:05:48;16.90;;;13.43;;
21480;SDS011;10902;48.158;8.634;2023-06-22T03:08:36;17.88;;;14.30;;
21480;SDS011;10902;48.158;8.634;2023-06-22T03:11:22;16.50;;;13.45;;
21480;SDS011;10902;48.158;8.634;2023-06-22T03:14:08;20.27;;;13.85;;
21480;SDS011;10902;48.158;8.634;2023-06-22T03:16:53;21.38;;;13.98;;
21480;SDS011;10902;48.158;8.634;2023-06-22T03:19:39;16.60;;;13.43;;
21480;SDS011;10902;48.158;8.634;2023-06-22T03:22:25;19.23;;;12.88;;
21480;SDS011;10902;48.158;8.634;2023-06-22T03:25:11;20.85;;;14.75;;
21480;SDS011;10902;48.158;8.634;2023-06-22T03:28:00;21.70;;;14.00;;
21480;SDS011;10902;48.158;8.634;2023-06-22T03:30:48;22.25;;;15.18;;
21480;SDS011;10902;48.158;8.634;2023-06-22T03:33:34;19.98;;;14.60;;
21480;SDS011;10902;48.158;8.634;2023-06-22T03:36:20;19.23;;;14.50;;
21480;SDS011;10902;48.158;8.634;2023-06-22T03:39:07;20.02;;;14.68;;
21480;SDS011;10902;48.158;8.634;2023-06-22T03:41:53;21.23;;;14.40;;
21480;SDS011;10902;48.158;8.634;2023-06-22T03:44:39;22.55;;;14.98;;
21480;SDS011;10902;48.158;8.634;2023-06-22T03:47:25;20.67;;;15.48;;
21480;SDS011;10902;48.158;8.634;2023-06-22T03:50:11;24.10;;;15.00;;
21480;SDS011;10902;48.158;8.634;2023-06-22T03:52:57;20.05;;;15.07;;
21480;SDS011;10902;48.158;8.634;2023-06-22T03:55:49;19.63;;;14.38;;
21480;SDS011;10902;48.158;8.634;2023-06-22T03:58:36;17.15;;;13.85;;
21480;SDS011;10902;48.158;8.634;2023-06-22T04:01:28;19.77;;;15.10;;
21480;SDS011;10902;48.158;8.634;2023-06-22T04:04:14;18.73;;;14.18;;
21480;SDS011;10902;48.158;8.634;2023-06-22T04:07:00;22.63;;;15.13;;
21480;SDS011;10902;48.158;8.634;2023-06-22T04:09:46;18.80;;;13.52;;
21480;SDS011;10902;48.158;8.634;2023-06-22T04:12:32;20.60;;;14.40;;
21480;SDS011;10902;48.158;8.634;2023-06-22T04:15:19;23.10;;;14.82;;
21480;SDS011;10902;48.158;8.634;2023-06-22T04:18:07;19.60;;;14.40;;
21480;SDS011;10902;48.158;8.634;2023-06-22T04:20:53;19.65;;;15.27;;
21480;SDS011;10902;48.158;8.634;2023-06-22T04:23:39;23.52;;;15.80;;
21480;SDS011;10902;48.158;8.634;2023-06-22T04:26:25;20.95;;;15.43;;
21480;SDS011;10902;48.158;8.634;2023-06-22T04:29:11;21.73;;;13.48;;
21480;SDS011;10902;48.158;8.634;2023-06-22T04:31:57;16.58;;;13.63;;
21480;SDS011;10902;48.158;8.634;2023-06-22T04:34:43;20.92;;;15.63;;
21480;SDS011;10902;48.158;8.634;2023-06-22T04:37:30;18.50;;;14.45;;
21480;SDS011;10902;48.158;8.634;2023-06-22T04:40:16;20.83;;;14.15;;
21480;SDS011;10902;48.158;8.634;2023-06-22T04:43:02;20.02;;;14.95;;
21480;SDS011;10902;48.158;8.634;2023-06-22T04:45:47;17.60;;;14.30;;
21480;SDS011;10902;48.158;8.634;2023-06-22T04:48:37;17.90;;;13.68;;
21480;SDS011;10902;48.158;8.634;2023-06-22T04:51:23;16.73;;;13.27;;
21480;SDS011;10902;48.158;8.634;2023-06-22T04:54:20;17.13;;;13.88;;
21480;SDS011;10902;48.158;8.634;2023-06-22T04:57:07;19.00;;;14.45;;
21480;SDS011;10902;48.158;8.634;2023-06-22T04:59:55;20.77;;;14.75;;
21480;SDS011;10902;48.158;8.634;2023-06-22T05:02:41;20.63;;;14.70;;
21480;SDS011;10902;48.158;8.634;2023-06-22T05:05:27;18.50;;;14.07;;
21480;SDS011;10902;48.158;8.634;2023-06-22T05:08:13;20.67;;;14.60;;
21480;SDS011;10902;48.158;8.634;2023-06-22T05:10:59;17.90;;;14.77;;
21480;SDS011;10902;48.158;8.634;2023-06-22T05:13:44;20.30;;;14.10;;
21480;SDS011;10902;48.158;8.634;2023-06-22T05:16:30;19.00;;;13.40;;
21480;SDS011;10902;48.158;8.634;2023-06-22T05:19:17;26.17;;;14.90;;
21480;SDS011;10902;48.158;8.634;2023-06-22T05:22:03;21.48;;;15.15;;
21480;SDS011;10902;48.158;8.634;2023-06-22T05:24:49;20.45;;;14.77;;
21480;SDS011;10902;48.158;8.634;2023-06-22T05:27:35;22.20;;;16.50;;
21480;SDS011;10902;48.158;8.634;2023-06-22T05:30:25;16.05;;;13.05;;
21480;SDS011;10902;48.158;8.634;2023-06-22T05:33:12;16.67;;;13.02;;
21480;SDS011;10902;48.158;8.634;2023-06-22T05:35:58;21.15;;;14.50;;
21480;SDS011;10902;48.158;8.634;2023-06-22T05:38:44;20.60;;;13.80;;
21480;SDS011;10902;48.158;8.634;2023-06-22T05:41:30;18.90;;;13.07;;
21480;SDS011;10902;48.158;8.634;2023-06-22T05:44:15;17.42;;;12.70;;
21480;SDS011;10902;48.158;8.634;2023-06-22T05:47:01;15.52;;;12.07;;
21480;SDS011;10902;48.158;8.634;2023-06-22T05:49:48;17.60;;;13.10;;
21480;SDS011;10902;48.158;8.634;2023-06-22T05:52:34;16.83;;;12.25;;
21480;SDS011;10902;48.158;8.634;2023-06-22T05:55:20;18.00;;;11.63;;
21480;SDS011;10902;48.158;8.634;2023-06-22T05:58:06;14.30;;;11.75;;
21480;SDS011;10902;48.158;8.634;2023-06-22T06:00:52;17.40;;;11.55;;
21480;SDS011;10902;48.158;8.634;2023-06-22T06:03:38;15.77;;;12.00;;
21480;SDS011;10902;48.158;8.634;2023-06-22T06:06:27;17.40;;;11.73;;
21480;SDS011;10902;48.158;8.634;2023-06-22T06:09:15;18.50;;;12.93;;
21480;SDS011;10902;48.158;8.634;2023-06-22T06:12:00;14.55;;;12.35;;
21480;SDS011;10902;48.158;8.634;2023-06-22T06:14:48;19.38;;;12.75;;
21480;SDS011;10902;48.158;8.634;2023-06-22T06:17:34;17.50;;;12.68;;
21480;SDS011;10902;48.158;8.634;2023-06-22T06:20:20;17.67;;;10.75;;
21480;SDS011;10902;48.158;8.634;2023-06-22T06:23:08;16.35;;;12.18;;
21480;SDS011;10902;48.158;8.634;2023-06-22T06:25:54;15.13;;;11.68;;
21480;SDS011;10902;48.158;8.634;2023-06-22T06:28:39;15.90;;;11.52;;
21480;SDS011;10902;48.158;8.634;2023-06-22T06:31:26;18.45;;;11.82;;
21480;SDS011;10902;48.158;8.634;2023-06-22T06:34:13;15.98;;;11.98;;
21480;SDS011;10902;48.158;8.634;2023-06-22T06:36:59;16.98;;;12.40;;
21480;SDS011;10902;48.158;8.634;2023-06-22T06:39:45;15.30;;;11.48;;
21480;SDS011;10902;48.158;8.634;2023-06-22T06:42:31;16.98;;;11.88;;
21480;SDS011;10902;48.158;8.634;2023-06-22T06:45:21;15.68;;;12.20;;
21480;SDS011;10902;48.158;8.634;2023-06-22T06:48:08;18.23;;;12.60;;
21480;SDS011;10902;48.158;8.634;2023-06-22T06:50:54;15.50;;;12.25;;
21480;SDS011;10902;48.158;8.634;2023-06-22T06:53:40;16.42;;;11.48;;
21480;SDS011;10902;48.158;8.634;2023-06-22T06:56:26;16.90;;;12.15;;
21480;SDS011;10902;48.158;8.634;2023-06-22T06:59:12;16.23;;;11.85;;
21480;SDS011;10902;48.158;8.634;2023-06-22T07:01:58;18.35;;;12.10;;
21480;SDS011;10902;48.158;8.634;2023-06-22T07:04:44;16.90;;;10.52;;
21480;SDS011;10902;48.158;8.634;2023-06-22T07:07:30;14.10;;;11.18;;
21480;SDS011;10902;48.158;8.634;2023-06-22T07:10:16;17.40;;;11.32;;
21480;SDS011;10902;48.158;8.634;2023-06-22T07:13:02;15.93;;;11.18;;
21480;SDS011;10902;48.158;8.634;2023-06-22T07:15:48;16.95;;;10.82;;
21480;SDS011;10902;48.158;8.634;2023-06-22T07:18:34;14.63;;;10.80;;
21480;SDS011;10902;48.158;8.634;2023-06-22T07:21:20;15.93;;;10.13;;
21480;SDS011;10902;48.158;8.634;2023-06-22T07:24:08;16.40;;;10.68;;
21480;SDS011;10902;48.158;8.634;2023-06-22T07:26:54;16.20;;;11.07;;
21480;SDS011;10902;48.158;8.634;2023-06-22T07:29:40;18.45;;;10.85;;
21480;SDS011;10902;48.158;8.634;2023-06-22T07:32:27;15.23;;;9.43;;
21480;SDS011;10902;48.158;8.634;2023-06-22T07:35:16;12.00;;;8.32;;
21480;SDS011;10902;48.158;8.634;2023-06-22T07:38:02;16.17;;;10.30;;
21480;SDS011;10902;48.158;8.634;2023-06-22T07:40:48;15.80;;;9.18;;
21480;SDS011;10902;48.158;8.634;2023-06-22T07:43:36;13.20;;;8.45;;
21480;SDS011;10902;48.158;8.634;2023-06-22T07:46:22;17.90;;;9.68;;
21480;SDS011;10902;48.158;8.634;2023-06-22T07:49:08;16.08;;;10.07;;
21480;SDS011;10902;48.158;8.634;2023-06-22T07:51:54;13.02;;;9.27;;
21480;SDS011;10902;48.158;8.634;2023-06-22T07:54:40;14.88;;;9.27;;
21480;SDS011;10902;48.158;8.634;2023-06-22T07:57:26;11.10;;;7.90;;
21480;SDS011;10902;48.158;8.634;2023-06-22T08:00:21;12.35;;;7.40;;
21480;SDS011;10902;48.158;8.634;2023-06-22T08:03:07;15.85;;;8.90;;
21480;SDS011;10902;48.158;8.634;2023-06-22T08:05:53;14.23;;;8.48;;
21480;SDS011;10902;48.158;8.634;2023-06-22T08:08:39;12.43;;;7.60;;
21480;SDS011;10902;48.158;8.634;2023-06-22T08:11:25;12.50;;;8.45;;
21480;SDS011;10902;48.158;8.634;2023-06-22T08:14:11;13.73;;;8.88;;
21480;SDS011;10902;48.158;8.634;2023-06-22T08:16:57;14.85;;;8.63;;
21480;SDS011;10902;48.158;8.634;2023-06-22T08:19:43;15.13;;;7.88;;
21480;SDS011;10902;48.158;8.634;2023-06-22T08:22:28;13.77;;;8.00;;
21480;SDS011;10902;48.158;8.634;2023-06-22T08:25:15;14.45;;;7.50;;
21480;SDS011;10902;48.158;8.634;2023-06-22T08:28:02;15.57;;;8.55;;
21480;SDS011;10902;48.158;8.634;2023-06-22T08:30:48;14.43;;;8.05;;
21480;SDS011;10902;48.158;8.634;2023-06-22T08:33:37;12.40;;;7.45;;
21480;SDS011;10902;48.158;8.634;2023-06-22T08:36:23;12.55;;;7.43;;
21480;SDS011;10902;48.158;8.634;2023-06-22T08:39:09;15.88;;;7.55;;
21480;SDS011;10902;48.158;8.634;2023-06-22T08:41:55;17.58;;;8.02;;
21480;SDS011;10902;48.158;8.634;2023-06-22T08:44:41;15.68;;;8.07;;
21480;SDS011;10902;48.158;8.634;2023-06-22T08:47:27;15.07;;;7.68;;
21480;SDS011;10902;48.158;8.634;2023-06-22T08:50:13;13.20;;;7.65;;
21480;SDS011;10902;48.158;8.634;2023-06-22T08:52:59;13.65;;;7.22;;
21480;SDS011;10902;48.158;8.634;2023-06-22T08:55:45;13.55;;;7.57;;
21480;SDS011;10902;48.158;8.634;2023-06-22T08:58:31;13.15;;;7.55;;
21480;SDS011;10902;48.158;8.634;2023-06-22T09:01:17;11.50;;;6.53;;
21480;SDS011;10902;48.158;8.634;2023-06-22T09:04:03;20.27;;;7.88;;
21480;SDS011;10902;48.158;8.634;2023-06-22T09:06:50;13.85;;;7.03;;
21480;SDS011;10902;48.158;8.634;2023-06-22T09:09:37;12.40;;;6.25;;
21480;SDS011;10902;48.158;8.634;2023-06-22T09:12:23;12.48;;;7.00;;
21480;SDS011;10902;48.158;8.634;2023-06-22T09:15:12;12.85;;;6.38;;
21480;SDS011;10902;48.158;8.634;2023-06-22T09:18:09;11.30;;;5.80;;
21480;SDS011;10902;48.158;8.634;2023-06-22T09:21:01;11.63;;;6.55;;
21480;SDS011;10902;48.158;8.634;2023-06-22T09:23:47;10.77;;;6.13;;
21480;SDS011;10902;48.158;8.634;2023-06-22T09:26:36;12.15;;;6.65;;
21480;SDS011;10902;48.158;8.634;2023-06-22T09:29:22;14.23;;;6.68;;
21480;SDS011;10902;48.158;8.634;2023-06-22T09:32:08;11.57;;;6.30;;
21480;SDS011;10902;48.158;8.634;2023-06-22T09:34:54;11.90;;;6.28;;
21480;SDS011;10902;48.158;8.634;2023-06-22T09:37:49;13.45;;;5.63;;
21480;SDS011;10902;48.158;8.634;2023-06-22T09:40:38;14.23;;;6.72;;
21480;SDS011;10902;48.158;8.634;2023-06-22T09:43:25;13.20;;;6.82;;
21480;SDS011;10902;48.158;8.634;2023-06-22T09:46:11;12.25;;;6.15;;
21480;SDS011;10902;48.158;8.634;2023-06-22T09:48:57;13.43;;;6.28;;
21480;SDS011;10902;48.158;8.634;2023-06-22T09:51:42;11.98;;;6.05;;
21480;SDS011;10902;48.158;8.634;2023-06-22T09:54:28;13.80;;;6.75;;
21480;SDS011;10902;48.158;8.634;2023-06-22T09:57:18;16.95;;;5.85;;
21480;SDS011;10902;48.158;8.634;2023-06-22T10:00:04;15.18;;;6.03;;
21480;SDS011;10902;48.158;8.634;2023-06-22T10:02:54;16.77;;;6.82;;
21480;SDS011;10902;48.158;8.634;2023-06-22T10:05:41;14.07;;;5.80;;
21480;SDS011;10902;48.158;8.634;2023-06-22T10:08:27;15.27;;;5.90;;
21480;SDS011;10902;48.158;8.634;2023-06-22T10:11:13;13.35;;;6.20;;
21480;SDS011;10902;48.158;8.634;2023-06-22T10:13:58;15.65;;;6.57;;
21480;SDS011;10902;48.158;8.634;2023-06-22T10:16:45;17.65;;;6.10;;
21480;SDS011;10902;48.158;8.634;2023-06-22T10:19:31;14.50;;;6.00;;
21480;SDS011;10902;48.158;8.634;2023-06-22T10:22:17;12.70;;;5.85;;
21480;SDS011;10902;48.158;8.634;2023-06-22T10:25:03;16.95;;;6.88;;
21480;SDS011;10902;48.158;8.634;2023-06-22T10:27:50;13.38;;;6.05;;
21480;SDS011;10902;48.158;8.634;2023-06-22T10:30:36;14.57;;;5.68;;
21480;SDS011;10902;48.158;8.634;2023-06-22T10:33:22;15.50;;;6.40;;
21480;SDS011;10902;48.158;8.634;2023-06-22T10:36:08;15.75;;;6.38;;
21480;SDS011;10902;48.158;8.634;2023-06-22T10:38:54;18.98;;;5.93;;
21480;SDS011;10902;48.158;8.634;2023-06-22T10:41:40;15.95;;;6.03;;
21480;SDS011;10902;48.158;8.634;2023-06-22T10:44:26;14.70;;;6.30;;
21480;SDS011;10902;48.158;8.634;2023-06-22T10:47:15;13.25;;;5.68;;
21480;SDS011;10902;48.158;8.634;2023-06-22T10:50:01;12.18;;;6.30;;
21480;SDS011;10902;48.158;8.634;2023-06-22T10:52:47;10.73;;;5.60;;
21480;SDS011;10902;48.158;8.634;2023-06-22T10:55:33;12.90;;;6.57;;
21480;SDS011;10902;48.158;8.634;2023-06-22T10:58:19;13.30;;;6.55;;
21480;SDS011;10902;48.158;8.634;2023-06-22T11:01:05;14.40;;;6.07;;
21480;SDS011;10902;48.158;8.634;2023-06-22T11:03:51;14.38;;;6.43;;
21480;SDS011;10902;48.158;8.634;2023-06-22T11:06:36;12.98;;;5.53;;
21480;SDS011;10902;48.158;8.634;2023-06-22T11:09:22;14.73;;;6.65;;
21480;SDS011;10902;48.158;8.634;2023-06-22T11:12:08;14.55;;;6.40;;
21480;SDS011;10902;48.158;8.634;2023-06-22T11:14:54;11.82;;;6.03;;
21480;SDS011;10902;48.158;8.634;2023-06-22T11:17:42;13.98;;;5.75;;
21480;SDS011;10902;48.158;8.634;2023-06-22T11:20:28;12.95;;;5.97;;
21480;SDS011;10902;48.158;8.634;2023-06-22T11:23:14;16.52;;;7.22;;
21480;SDS011;10902;48.158;8.634;2023-06-22T11:26:00;14.50;;;6.15;;
21480;SDS011;10902;48.158;8.634;2023-06-22T11:28:46;12.10;;;6.40;;
21480;SDS011;10902;48.158;8.634;2023-06-22T11:31:33;13.40;;;6.28;;
21480;SDS011;10902;48.158;8.634;2023-06-22T11:34:20;12.70;;;6.38;;
21480;SDS011;10902;48.158;8.634;2023-06-22T11:37:05;14.27;;;6.43;;
21480;SDS011;10902;48.158;8.634;2023-06-22T11:39:51;13.75;;;6.80;;
21480;SDS011;10902;48.158;8.634;2023-06-22T11:42:40;14.10;;;6.38;;
21480;SDS011;10902;48.158;8.634;2023-06-22T11:45:26;15.38;;;6.22;;
21480;SDS011;10902;48.158;8.634;2023-06-22T11:48:12;13.38;;;6.60;;
21480;SDS011;10902;48.158;8.634;2023-06-22T11:50:58;10.90;;;6.35;;
21480;SDS011;10902;48.158;8.634;2023-06-22T11:53:44;12.38;;;6.70;;
21480;SDS011;10902;48.158;8.634;2023-06-22T11:56:30;15.57;;;6.57;;
21480;SDS011;10902;48.158;8.634;2023-06-22T11:59:16;13.02;;;7.03;;
21480;SDS011;10902;48.158;8.634;2023-06-22T12:02:02;15.38;;;7.03;;
21480;SDS011;10902;48.158;8.634;2023-06-22T12:04:49;14.63;;;7.30;;
21480;SDS011;10902;48.158;8.634;2023-06-22T12:07:37;15.63;;;6.38;;
21480;SDS011;10902;48.158;8.634;2023-06-22T12:10:26;14.15;;;6.88;;
21480;SDS011;10902;48.158;8.634;2023-06-22T12:13:14;13.23;;;7.10;;
21480;SDS011;10902;48.158;8.634;2023-06-22T12:16:01;11.32;;;6.90;;
21480;SDS011;10902;48.158;8.634;2023-06-22T12:18:47;12.90;;;6.90;;
21480;SDS011;10902;48.158;8.634;2023-06-22T12:21:37;14.10;;;6.70;;
21480;SDS011;10902;48.158;8.634;2023-06-22T12:24:23;16.25;;;6.63;;
21480;SDS011;10902;48.158;8.634;2023-06-22T12:27:09;14.98;;;7.60;;
21480;SDS011;10902;48.158;8.634;2023-06-22T12:29:55;12.90;;;6.95;;
21480;SDS011;10902;48.158;8.634;2023-06-22T12:32:41;11.80;;;6.68;;
21480;SDS011;10902;48.158;8.634;2023-06-22T12:35:27;15.00;;;7.00;;
21480;SDS011;10902;48.158;8.634;2023-06-22T12:38:17;13.15;;;6.80;;
21480;SDS011;10902;48.158;8.634;2023-06-22T12:41:06;19.67;;;6.93;;
21480;SDS011;10902;48.158;8.634;2023-06-22T12:43:52;13.88;;;7.03;;
21480;SDS011;10902;48.158;8.634;2023-06-22T12:46:38;13.75;;;6.88;;
21480;SDS011;10902;48.158;8.634;2023-06-22T12:49:24;16.85;;;6.55;;
21480;SDS011;10902;48.158;8.634;2023-06-22T12:52:10;12.07;;;6.57;;
21480;SDS011;10902;48.158;8.634;2023-06-22T12:55:02;13.95;;;6.25;;
21480;SDS011;10902;48.158;8.634;2023-06-22T12:57:48;14.70;;;6.72;;
21480;SDS011;10902;48.158;8.634;2023-06-22T13:00:34;13.68;;;5.97;;
21480;SDS011;10902;48.158;8.634;2023-06-22T13:03:25;13.90;;;7.32;;
21480;SDS011;10902;48.158;8.634;2023-06-22T13:06:13;13.32;;;6.22;;
21480;SDS011;10902;48.158;8.634;2023-06-22T13:08:59;14.98;;;6.30;;
21480;SDS011;10902;48.158;8.634;2023-06-22T13:11:44;15.50;;;6.55;;
21480;SDS011;10902;48.158;8.634;2023-06-22T13:14:30;11.95;;;6.35;;
21480;SDS011;10902;48.158;8.634;2023-06-22T13:17:16;12.65;;;6.30;;
21480;SDS011;10902;48.158;8.634;2023-06-22T13:20:02;12.77;;;5.53;;
21480;SDS011;10902;48.158;8.634;2023-06-22T13:22:50;17.15;;;6.38;;
21480;SDS011;10902;48.158;8.634;2023-06-22T13:25:36;13.30;;;5.70;;
21480;SDS011;10902;48.158;8.634;2023-06-22T13:28:21;12.35;;;5.20;;
21480;SDS011;10902;48.158;8.634;2023-06-22T13:31:07;8.88;;;4.00;;
21480;SDS011;10902;48.158;8.634;2023-06-22T13:33:53;12.27;;;3.90;;
21480;SDS011;10902;48.158;8.634;2023-06-22T13:36:39;11.85;;;3.63;;
21480;SDS011;10902;48.158;8.634;2023-06-22T13:39:34;12.93;;;4.10;;
21480;SDS011;10902;48.158;8.634;2023-06-22T13:42:45;8.57;;;3.67;;
21480;SDS011;10902;48.158;8.634;2023-06-22T13:49:33;11.55;;;3.05;;
21480;SDS011;10902;48.158;8.634;2023-06-22T13:52:25;10.85;;;2.70;;
21480;SDS011;10902;48.158;8.634;2023-06-22T13:55:11;10.82;;;3.00;;
21480;SDS011;10902;48.158;8.634;2023-06-22T14:01:53;11.77;;;3.20;;
21480;SDS011;10902;48.158;8.634;2023-06-22T14:05:31;10.02;;;3.58;;
21480;SDS011;10902;48.158;8.634;2023-06-22T14:08:38;13.75;;;3.25;;
21480;SDS011;10902;48.158;8.634;2023-06-22T14:11:29;10.85;;;3.33;;
21480;SDS011;10902;48.158;8.634;2023-06-22T14:14:18;12.75;;;3.72;;
21480;SDS011;10902;48.158;8.634;2023-06-22T14:17:07;14.25;;;3.65;;
21480;SDS011;10902;48.158;8.634;2023-06-22T14:19:52;11.85;;;3.22;;
21480;SDS011;10902;48.158;8.634;2023-06-22T14:22:38;13.07;;;3.47;;
21480;SDS011;10902;48.158;8.634;2023-06-22T14:25:25;14.77;;;4.40;;
21480;SDS011;10902;48.158;8.634;2023-06-22T14:28:11;13.73;;;3.38;;
21480;SDS011;10902;48.158;8.634;2023-06-22T14:31:01;12.07;;;3.58;;
21480;SDS011;10902;48.158;8.634;2023-06-22T14:33:52;12.65;;;3.75;;
21480;SDS011;10902;48.158;8.634;2023-06-22T14:36:38;10.45;;;3.88;;
21480;SDS011;10902;48.158;8.634;2023-06-22T14:39:24;13.48;;;4.47;;
21480;SDS011;10902;48.158;8.634;2023-06-22T14:42:18;15.70;;;4.28;;
21480;SDS011;10902;48.158;8.634;2023-06-22T14:45:07;12.80;;;4.13;;
21480;SDS011;10902;48.158;8.634;2023-06-22T14:47:53;10.00;;;3.88;;
21480;SDS011;10902;48.158;8.634;2023-06-22T14:50:42;15.43;;;4.13;;
21480;SDS011;10902;48.158;8.634;2023-06-22T14:53:28;11.98;;;4.10;;
21480;SDS011;10902;48.158;8.634;2023-06-22T14:56:14;12.55;;;4.00;;
21480;SDS011;10902;48.158;8.634;2023-06-22T14:59:00;13.20;;;4.22;;
21480;SDS011;10902;48.158;8.634;2023-06-22T15:01:46;9.98;;;3.67;;
21480;SDS011;10902;48.158;8.634;2023-06-22T15:04:35;11.25;;;4.10;;
21480;SDS011;10902;48.158;8.634;2023-06-22T15:07:26;15.27;;;4.72;;
21480;SDS011;10902;48.158;8.634;2023-06-22T15:10:12;10.27;;;4.13;;
21480;SDS011;10902;48.158;8.634;2023-06-22T15:13:00;9.98;;;4.38;;
21480;SDS011;10902;48.158;8.634;2023-06-22T15:15:46;13.07;;;4.40;;
21480;SDS011;10902;48.158;8.634;2023-06-22T15:18:33;13.32;;;4.25;;
21480;SDS011;10902;48.158;8.634;2023-06-22T15:21:20;11.43;;;4.25;;
21480;SDS011;10902;48.158;8.634;2023-06-22T15:24:06;9.75;;;3.90;;
21480;SDS011;10902;48.158;8.634;2023-06-22T15:26:52;10.60;;;3.85;;
21480;SDS011;10902;48.158;8.634;2023-06-22T15:29:38;12.00;;;4.38;;
21480;SDS011;10902;48.158;8.634;2023-06-22T15:32:24;16.45;;;4.75;;
21480;SDS011;10902;48.158;8.634;2023-06-22T15:35:11;8.60;;;4.00;;
21480;SDS011;10902;48.158;8.634;2023-06-22T15:37:57;15.57;;;5.30;;
21480;SDS011;10902;48.158;8.634;2023-06-22T15:40:44;11.70;;;4.13;;
21480;SDS011;10902;48.158;8.634;2023-06-22T15:43:30;12.82;;;4.28;;
21480;SDS011;10902;48.158;8.634;2023-06-22T15:46:16;13.68;;;4.13;;
21480;SDS011;10902;48.158;8.634;2023-06-22T15:49:03;7.63;;;3.65;;
21480;SDS011;10902;48.158;8.634;2023-06-22T15:51:48;12.32;;;4.28;;
21480;SDS011;10902;48.158;8.634;2023-06-22T15:54:35;13.68;;;4.63;;
21480;SDS011;10902;48.158;8.634;2023-06-22T15:57:21;12.93;;;4.78;;
21480;SDS011;10902;48.158;8.634;2023-06-22T16:00:07;11.27;;;4.10;;
21480;SDS011;10902;48.158;8.634;2023-06-22T16:02:53;11.57;;;4.78;;
21480;SDS011;10902;48.158;8.634;2023-06-22T16:05:39;9.48;;;4.63;;
21480;SDS011;10902;48.158;8.634;2023-06-22T16:08:25;11.70;;;4.50;;
21480;SDS011;10902;48.158;8.634;2023-06-22T16:11:13;11.05;;;4.40;;
21480;SDS011;10902;48.158;8.634;2023-06-22T16:13:59;9.63;;;4.45;;
21480;SDS011;10902;48.158;8.634;2023-06-22T16:16:45;9.10;;;4.60;;
21480;SDS011;10902;48.158;8.634;2023-06-22T16:19:31;11.85;;;4.65;;
21480;SDS011;10902;48.158;8.634;2023-06-22T16:22:22;11.43;;;4.22;;
21480;SDS011;10902;48.158;8.634;2023-06-22T16:25:11;15.90;;;4.93;;
21480;SDS011;10902;48.158;8.634;2023-06-22T16:27:57;12.23;;;4.40;;
21480;SDS011;10902;48.158;8.634;2023-06-22T16:30:42;10.98;;;4.13;;
21480;SDS011;10902;48.158;8.634;2023-06-22T16:33:29;10.52;;;4.10;;
21480;SDS011;10902;48.158;8.634;2023-06-22T16:36:15;9.63;;;3.28;;
21480;SDS011;10902;48.158;8.634;2023-06-22T16:39:01;13.18;;;3.30;;
21480;SDS011;10902;48.158;8.634;2023-06-22T16:41:48;12.98;;;3.58;;
21480;SDS011;10902;48.158;8.634;2023-06-22T16:44:35;7.97;;;3.30;;